sensor_id;sensor_type;location;lat;lon;timestamp;P1;durP1;ratioP1;P2;durP2;ratioP2
39788;SDS011;25478;42.626;23.320;2023-08-20T00:02:19;10.90;;;7.10;;
39788;SDS011;25478;42.626;23.320;2023-08-20T00:04:49;8.77;;;6.63;;
39788;SDS011;25478;42.626;23.320;2023-08-20T00:07:15;10.13;;;7.28;;
39788;SDS011;25478;42.626;23.320;2023-08-20T00:09:43;9.48;;;7.50;;
39788;SDS011;25478;42.626;23.320;2023-08-20T00:12:09;10.25;;;6.95;;
39788;SDS011;25478;42.626;23.320;2023-08-20T00:17:23;11.15;;;7.57;;
39788;SDS011;25478;42.626;23.320;2023-08-20T00:19:52;8.32;;;7.28;;
39788;SDS011;25478;42.626;23.320;2023-08-20T00:22:18;9.32;;;7.35;;
39788;SDS011;25478;42.626;23.320;2023-08-20T00:24:46;10.82;;;7.47;;
39788;SDS011;25478;42.626;23.320;2023-08-20T00:27:12;8.70;;;6.65;;
39788;SDS011;25478;42.626;23.320;2023-08-20T00:29:37;8.40;;;6.75;;
39788;SDS011;25478;42.626;23.320;2023-08-20T00:32:03;9.05;;;7.05;;
39788;SDS011;25478;42.626;23.320;2023-08-20T00:34:29;9.10;;;6.95;;
39788;SDS011;25478;42.626;23.320;2023-08-20T00:36:54;8.48;;;7.03;;
39788;SDS011;25478;42.626;23.320;2023-08-20T00:39:20;10.73;;;7.40;;
39788;SDS011;25478;42.626;23.320;2023-08-20T00:41:45;11.40;;;7.25;;
39788;SDS011;25478;42.626;23.320;2023-08-20T00:44:10;10.63;;;7.72;;
39788;SDS011;25478;42.626;23.320;2023-08-20T00:46:36;10.30;;;7.18;;
39788;SDS011;25478;42.626;23.320;2023-08-20T00:49:01;10.43;;;7.18;;
39788;SDS011;25478;42.626;23.320;2023-08-20T00:51:27;9.25;;;7.50;;
39788;SDS011;25478;42.626;23.320;2023-08-20T00:53:53;9.63;;;6.65;;
39788;SDS011;25478;42.626;23.320;2023-08-20T00:56:20;10.52;;;6.97;;
39788;SDS011;25478;42.626;23.320;2023-08-20T00:58:46;9.50;;;7.45;;
39788;SDS011;25478;42.626;23.320;2023-08-20T01:01:12;9.05;;;7.22;;
39788;SDS011;25478;42.626;23.320;2023-08-20T01:03:38;11.10;;;7.63;;
39788;SDS011;25478;42.626;23.320;2023-08-20T01:06:20;10.48;;;7.47;;
39788;SDS011;25478;42.626;23.320;2023-08-20T01:11:57;10.35;;;7.25;;
39788;SDS011;25478;42.626;23.320;2023-08-20T01:14:25;10.18;;;7.65;;
39788;SDS011;25478;42.626;23.320;2023-08-20T01:16:50;10.95;;;7.25;;
39788;SDS011;25478;42.626;23.320;2023-08-20T01:19:16;10.48;;;7.40;;
39788;SDS011;25478;42.626;23.320;2023-08-20T01:21:50;9.65;;;6.78;;
39788;SDS011;25478;42.626;23.320;2023-08-20T01:30:17;9.00;;;6.97;;
39788;SDS011;25478;42.626;23.320;2023-08-20T01:32:46;10.93;;;7.07;;
39788;SDS011;25478;42.626;23.320;2023-08-20T01:35:13;8.98;;;6.82;;
39788;SDS011;25478;42.626;23.320;2023-08-20T01:37:41;8.00;;;6.43;;
39788;SDS011;25478;42.626;23.320;2023-08-20T01:40:08;9.43;;;6.43;;
39788;SDS011;25478;42.626;23.320;2023-08-20T01:42:36;8.90;;;6.45;;
39788;SDS011;25478;42.626;23.320;2023-08-20T01:45:03;10.57;;;6.47;;
39788;SDS011;25478;42.626;23.320;2023-08-20T01:47:29;9.70;;;6.78;;
39788;SDS011;25478;42.626;23.320;2023-08-20T01:49:55;10.60;;;7.13;;
39788;SDS011;25478;42.626;23.320;2023-08-20T01:52:20;9.90;;;7.78;;
39788;SDS011;25478;42.626;23.320;2023-08-20T01:54:47;10.50;;;7.63;;
39788;SDS011;25478;42.626;23.320;2023-08-20T01:57:16;10.60;;;8.32;;
39788;SDS011;25478;42.626;23.320;2023-08-20T01:59:41;10.65;;;8.10;;
39788;SDS011;25478;42.626;23.320;2023-08-20T02:02:08;12.43;;;8.02;;
39788;SDS011;25478;42.626;23.320;2023-08-20T02:04:34;10.70;;;8.27;;
39788;SDS011;25478;42.626;23.320;2023-08-20T02:07:00;11.63;;;8.02;;
39788;SDS011;25478;42.626;23.320;2023-08-20T02:09:26;11.60;;;8.43;;
39788;SDS011;25478;42.626;23.320;2023-08-20T02:11:52;11.05;;;8.20;;
39788;SDS011;25478;42.626;23.320;2023-08-20T02:14:17;10.55;;;8.77;;
39788;SDS011;25478;42.626;23.320;2023-08-20T02:16:43;12.18;;;8.60;;
39788;SDS011;25478;42.626;23.320;2023-08-20T02:19:10;12.52;;;8.95;;
39788;SDS011;25478;42.626;23.320;2023-08-20T02:21:36;10.98;;;7.55;;
39788;SDS011;25478;42.626;23.320;2023-08-20T02:24:02;11.90;;;9.02;;
39788;SDS011;25478;42.626;23.320;2023-08-20T02:26:27;11.40;;;8.52;;
39788;SDS011;25478;42.626;23.320;2023-08-20T02:28:53;11.68;;;8.75;;
39788;SDS011;25478;42.626;23.320;2023-08-20T02:31:18;11.50;;;8.35;;
39788;SDS011;25478;42.626;23.320;2023-08-20T02:33:46;10.52;;;8.13;;
39788;SDS011;25478;42.626;23.320;2023-08-20T02:36:12;13.07;;;8.85;;
39788;SDS011;25478;42.626;23.320;2023-08-20T02:38:37;10.35;;;8.38;;
39788;SDS011;25478;42.626;23.320;2023-08-20T02:41:03;11.32;;;8.63;;
39788;SDS011;25478;42.626;23.320;2023-08-20T02:43:29;10.68;;;8.30;;
39788;SDS011;25478;42.626;23.320;2023-08-20T02:45:54;11.68;;;8.77;;
39788;SDS011;25478;42.626;23.320;2023-08-20T02:48:20;11.13;;;8.93;;
39788;SDS011;25478;42.626;23.320;2023-08-20T02:50:46;11.20;;;8.25;;
39788;SDS011;25478;42.626;23.320;2023-08-20T02:53:11;12.32;;;8.55;;
39788;SDS011;25478;42.626;23.320;2023-08-20T02:55:37;11.27;;;8.68;;
39788;SDS011;25478;42.626;23.320;2023-08-20T02:58:03;12.77;;;8.88;;
39788;SDS011;25478;42.626;23.320;2023-08-20T03:00:29;11.00;;;8.30;;
39788;SDS011;25478;42.626;23.320;2023-08-20T03:02:55;12.60;;;8.40;;
39788;SDS011;25478;42.626;23.320;2023-08-20T03:05:22;12.93;;;8.63;;
39788;SDS011;25478;42.626;23.320;2023-08-20T03:07:47;10.38;;;8.50;;
39788;SDS011;25478;42.626;23.320;2023-08-20T03:10:13;10.95;;;8.00;;
39788;SDS011;25478;42.626;23.320;2023-08-20T03:12:38;10.57;;;8.30;;
39788;SDS011;25478;42.626;23.320;2023-08-20T03:15:04;11.35;;;8.80;;
39788;SDS011;25478;42.626;23.320;2023-08-20T03:17:30;12.15;;;8.70;;
39788;SDS011;25478;42.626;23.320;2023-08-20T03:19:56;12.50;;;8.55;;
39788;SDS011;25478;42.626;23.320;2023-08-20T03:22:23;10.75;;;8.38;;
39788;SDS011;25478;42.626;23.320;2023-08-20T03:24:50;12.70;;;8.20;;
39788;SDS011;25478;42.626;23.320;2023-08-20T03:27:15;11.35;;;8.35;;
39788;SDS011;25478;42.626;23.320;2023-08-20T03:29:42;13.45;;;7.88;;
39788;SDS011;25478;42.626;23.320;2023-08-20T03:32:10;11.25;;;8.02;;
39788;SDS011;25478;42.626;23.320;2023-08-20T03:34:35;9.68;;;8.25;;
39788;SDS011;25478;42.626;23.320;2023-08-20T03:37:01;10.15;;;7.97;;
39788;SDS011;25478;42.626;23.320;2023-08-20T03:39:27;13.32;;;8.43;;
39788;SDS011;25478;42.626;23.320;2023-08-20T03:41:53;12.05;;;8.13;;
39788;SDS011;25478;42.626;23.320;2023-08-20T03:44:19;12.43;;;8.45;;
39788;SDS011;25478;42.626;23.320;2023-08-20T03:46:44;10.82;;;8.00;;
39788;SDS011;25478;42.626;23.320;2023-08-20T03:49:11;9.35;;;7.82;;
39788;SDS011;25478;42.626;23.320;2023-08-20T03:51:36;10.05;;;7.57;;
39788;SDS011;25478;42.626;23.320;2023-08-20T03:54:02;10.40;;;7.63;;
39788;SDS011;25478;42.626;23.320;2023-08-20T03:56:28;9.27;;;7.88;;
39788;SDS011;25478;42.626;23.320;2023-08-20T03:58:54;12.15;;;7.70;;
39788;SDS011;25478;42.626;23.320;2023-08-20T04:01:20;11.00;;;7.88;;
39788;SDS011;25478;42.626;23.320;2023-08-20T04:03:46;10.65;;;7.88;;
39788;SDS011;25478;42.626;23.320;2023-08-20T04:06:12;10.68;;;8.75;;
39788;SDS011;25478;42.626;23.320;2023-08-20T04:08:37;11.10;;;8.57;;
39788;SDS011;25478;42.626;23.320;2023-08-20T04:11:03;11.85;;;8.38;;
39788;SDS011;25478;42.626;23.320;2023-08-20T04:13:29;12.43;;;8.20;;
39788;SDS011;25478;42.626;23.320;2023-08-20T04:15:54;11.43;;;8.50;;
39788;SDS011;25478;42.626;23.320;2023-08-20T04:18:20;11.85;;;9.70;;
39788;SDS011;25478;42.626;23.320;2023-08-20T04:20:46;11.25;;;8.57;;
39788;SDS011;25478;42.626;23.320;2023-08-20T04:23:11;9.50;;;7.80;;
39788;SDS011;25478;42.626;23.320;2023-08-20T04:25:37;11.48;;;8.40;;
39788;SDS011;25478;42.626;23.320;2023-08-20T04:28:02;10.73;;;8.07;;
39788;SDS011;25478;42.626;23.320;2023-08-20T04:30:29;10.93;;;8.18;;
39788;SDS011;25478;42.626;23.320;2023-08-20T04:32:54;10.82;;;8.10;;
39788;SDS011;25478;42.626;23.320;2023-08-20T04:35:20;10.48;;;8.23;;
39788;SDS011;25478;42.626;23.320;2023-08-20T04:37:47;12.32;;;8.40;;
39788;SDS011;25478;42.626;23.320;2023-08-20T04:40:12;11.55;;;8.10;;
39788;SDS011;25478;42.626;23.320;2023-08-20T04:42:38;10.50;;;8.07;;
39788;SDS011;25478;42.626;23.320;2023-08-20T04:45:05;10.10;;;7.93;;
39788;SDS011;25478;42.626;23.320;2023-08-20T04:47:31;10.80;;;7.90;;
39788;SDS011;25478;42.626;23.320;2023-08-20T04:49:57;9.20;;;8.07;;
39788;SDS011;25478;42.626;23.320;2023-08-20T04:52:23;11.27;;;7.57;;
39788;SDS011;25478;42.626;23.320;2023-08-20T04:54:49;8.60;;;7.55;;
39788;SDS011;25478;42.626;23.320;2023-08-20T04:57:15;8.85;;;7.18;;
39788;SDS011;25478;42.626;23.320;2023-08-20T04:59:41;10.55;;;7.70;;
39788;SDS011;25478;42.626;23.320;2023-08-20T05:02:13;10.77;;;7.20;;
39788;SDS011;25478;42.626;23.320;2023-08-20T05:04:44;9.45;;;7.07;;
39788;SDS011;25478;42.626;23.320;2023-08-20T05:07:10;8.43;;;7.30;;
39788;SDS011;25478;42.626;23.320;2023-08-20T05:09:35;13.48;;;7.57;;
39788;SDS011;25478;42.626;23.320;2023-08-20T05:12:01;10.32;;;7.28;;
39788;SDS011;25478;42.626;23.320;2023-08-20T05:14:28;9.30;;;7.18;;
39788;SDS011;25478;42.626;23.320;2023-08-20T05:16:54;11.15;;;7.00;;
39788;SDS011;25478;42.626;23.320;2023-08-20T05:19:20;10.10;;;6.75;;
39788;SDS011;25478;42.626;23.320;2023-08-20T05:21:46;11.25;;;6.80;;
39788;SDS011;25478;42.626;23.320;2023-08-20T05:24:12;9.98;;;7.05;;
39788;SDS011;25478;42.626;23.320;2023-08-20T05:26:37;12.13;;;8.43;;
39788;SDS011;25478;42.626;23.320;2023-08-20T05:29:03;10.75;;;8.30;;
39788;SDS011;25478;42.626;23.320;2023-08-20T05:31:28;9.93;;;8.43;;
39788;SDS011;25478;42.626;23.320;2023-08-20T05:33:54;11.70;;;8.00;;
39788;SDS011;25478;42.626;23.320;2023-08-20T05:36:20;10.05;;;7.90;;
39788;SDS011;25478;42.626;23.320;2023-08-20T05:38:47;11.38;;;8.43;;
39788;SDS011;25478;42.626;23.320;2023-08-20T05:41:12;13.80;;;8.20;;
39788;SDS011;25478;42.626;23.320;2023-08-20T05:43:38;14.35;;;8.75;;
39788;SDS011;25478;42.626;23.320;2023-08-20T05:46:04;11.43;;;8.20;;
39788;SDS011;25478;42.626;23.320;2023-08-20T05:48:29;11.98;;;8.55;;
39788;SDS011;25478;42.626;23.320;2023-08-20T05:50:55;11.80;;;8.95;;
39788;SDS011;25478;42.626;23.320;2023-08-20T05:53:24;11.23;;;8.75;;
39788;SDS011;25478;42.626;23.320;2023-08-20T05:55:50;13.40;;;9.32;;
39788;SDS011;25478;42.626;23.320;2023-08-20T05:58:15;11.50;;;8.57;;
39788;SDS011;25478;42.626;23.320;2023-08-20T06:00:41;10.75;;;7.93;;
39788;SDS011;25478;42.626;23.320;2023-08-20T06:03:07;11.45;;;8.43;;
39788;SDS011;25478;42.626;23.320;2023-08-20T06:05:34;10.25;;;7.75;;
39788;SDS011;25478;42.626;23.320;2023-08-20T06:07:59;9.63;;;7.85;;
39788;SDS011;25478;42.626;23.320;2023-08-20T06:10:25;9.88;;;7.47;;
39788;SDS011;25478;42.626;23.320;2023-08-20T06:12:51;12.13;;;7.93;;
39788;SDS011;25478;42.626;23.320;2023-08-20T06:15:17;9.63;;;7.43;;
39788;SDS011;25478;42.626;23.320;2023-08-20T06:17:43;11.20;;;7.32;;
39788;SDS011;25478;42.626;23.320;2023-08-20T06:20:09;10.77;;;7.47;;
39788;SDS011;25478;42.626;23.320;2023-08-20T06:22:36;11.77;;;7.47;;
39788;SDS011;25478;42.626;23.320;2023-08-20T06:25:02;11.02;;;6.65;;
39788;SDS011;25478;42.626;23.320;2023-08-20T06:27:28;9.73;;;6.95;;
39788;SDS011;25478;42.626;23.320;2023-08-20T06:29:53;10.90;;;6.88;;
39788;SDS011;25478;42.626;23.320;2023-08-20T06:32:19;8.35;;;5.80;;
39788;SDS011;25478;42.626;23.320;2023-08-20T06:34:44;10.18;;;6.78;;
39788;SDS011;25478;42.626;23.320;2023-08-20T06:37:10;9.82;;;6.82;;
39788;SDS011;25478;42.626;23.320;2023-08-20T06:39:35;9.02;;;6.30;;
39788;SDS011;25478;42.626;23.320;2023-08-20T06:42:01;8.88;;;6.47;;
39788;SDS011;25478;42.626;23.320;2023-08-20T06:44:29;6.95;;;6.05;;
39788;SDS011;25478;42.626;23.320;2023-08-20T06:46:54;10.35;;;6.38;;
39788;SDS011;25478;42.626;23.320;2023-08-20T06:49:20;8.57;;;5.70;;
39788;SDS011;25478;42.626;23.320;2023-08-20T06:51:45;7.63;;;6.30;;
39788;SDS011;25478;42.626;23.320;2023-08-20T06:54:11;8.95;;;6.60;;
39788;SDS011;25478;42.626;23.320;2023-08-20T06:56:36;8.68;;;5.95;;
39788;SDS011;25478;42.626;23.320;2023-08-20T06:59:02;8.02;;;6.60;;
39788;SDS011;25478;42.626;23.320;2023-08-20T07:01:28;8.82;;;6.60;;
39788;SDS011;25478;42.626;23.320;2023-08-20T07:03:54;7.50;;;6.28;;
39788;SDS011;25478;42.626;23.320;2023-08-20T07:06:19;7.63;;;6.32;;
39788;SDS011;25478;42.626;23.320;2023-08-20T07:08:45;10.32;;;6.55;;
39788;SDS011;25478;42.626;23.320;2023-08-20T07:11:11;9.52;;;6.28;;
39788;SDS011;25478;42.626;23.320;2023-08-20T07:13:36;8.18;;;5.93;;
39788;SDS011;25478;42.626;23.320;2023-08-20T07:16:02;7.43;;;6.10;;
39788;SDS011;25478;42.626;23.320;2023-08-20T07:18:28;8.15;;;5.63;;
39788;SDS011;25478;42.626;23.320;2023-08-20T07:20:54;9.38;;;6.25;;
39788;SDS011;25478;42.626;23.320;2023-08-20T07:23:20;8.60;;;5.95;;
39788;SDS011;25478;42.626;23.320;2023-08-20T07:25:45;8.48;;;6.25;;
39788;SDS011;25478;42.626;23.320;2023-08-20T07:28:12;7.32;;;5.82;;
39788;SDS011;25478;42.626;23.320;2023-08-20T07:30:37;10.05;;;6.45;;
39788;SDS011;25478;42.626;23.320;2023-08-20T07:33:03;7.38;;;6.55;;
39788;SDS011;25478;42.626;23.320;2023-08-20T07:35:29;8.63;;;6.57;;
39788;SDS011;25478;42.626;23.320;2023-08-20T07:37:54;7.65;;;6.80;;
39788;SDS011;25478;42.626;23.320;2023-08-20T07:40:20;7.78;;;6.25;;
39788;SDS011;25478;42.626;23.320;2023-08-20T07:42:46;10.23;;;6.65;;
39788;SDS011;25478;42.626;23.320;2023-08-20T07:45:11;8.48;;;6.47;;
39788;SDS011;25478;42.626;23.320;2023-08-20T07:47:38;10.40;;;6.55;;
39788;SDS011;25478;42.626;23.320;2023-08-20T07:50:04;10.13;;;6.05;;
39788;SDS011;25478;42.626;23.320;2023-08-20T07:52:31;8.00;;;6.03;;
39788;SDS011;25478;42.626;23.320;2023-08-20T07:54:57;9.68;;;6.00;;
39788;SDS011;25478;42.626;23.320;2023-08-20T07:57:22;7.10;;;6.38;;
39788;SDS011;25478;42.626;23.320;2023-08-20T07:59:51;9.48;;;6.20;;
39788;SDS011;25478;42.626;23.320;2023-08-20T08:02:17;8.05;;;5.97;;
39788;SDS011;25478;42.626;23.320;2023-08-20T08:04:43;8.88;;;5.68;;
39788;SDS011;25478;42.626;23.320;2023-08-20T08:07:09;7.53;;;6.22;;
39788;SDS011;25478;42.626;23.320;2023-08-20T08:09:35;9.40;;;6.15;;
39788;SDS011;25478;42.626;23.320;2023-08-20T08:12:01;10.05;;;6.63;;
39788;SDS011;25478;42.626;23.320;2023-08-20T08:14:27;6.90;;;5.28;;
39788;SDS011;25478;42.626;23.320;2023-08-20T08:16:53;7.15;;;5.13;;
39788;SDS011;25478;42.626;23.320;2023-08-20T08:19:18;7.20;;;5.68;;
39788;SDS011;25478;42.626;23.320;2023-08-20T08:21:45;8.68;;;6.13;;
39788;SDS011;25478;42.626;23.320;2023-08-20T08:24:14;8.13;;;5.47;;
39788;SDS011;25478;42.626;23.320;2023-08-20T08:26:40;6.35;;;5.60;;
39788;SDS011;25478;42.626;23.320;2023-08-20T08:29:06;6.85;;;5.07;;
39788;SDS011;25478;42.626;23.320;2023-08-20T08:31:32;8.15;;;5.57;;
39788;SDS011;25478;42.626;23.320;2023-08-20T08:33:58;10.43;;;5.32;;
39788;SDS011;25478;42.626;23.320;2023-08-20T08:36:24;7.40;;;5.15;;
39788;SDS011;25478;42.626;23.320;2023-08-20T08:38:54;9.32;;;5.75;;
39788;SDS011;25478;42.626;23.320;2023-08-20T08:41:21;5.97;;;4.90;;
39788;SDS011;25478;42.626;23.320;2023-08-20T08:43:48;6.38;;;4.88;;
39788;SDS011;25478;42.626;23.320;2023-08-20T08:46:14;7.15;;;5.05;;
39788;SDS011;25478;42.626;23.320;2023-08-20T08:48:40;10.00;;;5.15;;
39788;SDS011;25478;42.626;23.320;2023-08-20T08:51:07;7.43;;;4.80;;
39788;SDS011;25478;42.626;23.320;2023-08-20T08:53:33;6.18;;;4.55;;
39788;SDS011;25478;42.626;23.320;2023-08-20T08:56:00;7.82;;;5.07;;
39788;SDS011;25478;42.626;23.320;2023-08-20T08:58:26;7.53;;;5.05;;
39788;SDS011;25478;42.626;23.320;2023-08-20T09:00:52;8.80;;;5.85;;
39788;SDS011;25478;42.626;23.320;2023-08-20T09:03:17;8.32;;;6.00;;
39788;SDS011;25478;42.626;23.320;2023-08-20T09:05:47;10.90;;;5.97;;
39788;SDS011;25478;42.626;23.320;2023-08-20T09:08:20;8.32;;;6.47;;
39788;SDS011;25478;42.626;23.320;2023-08-20T09:10:46;8.73;;;5.80;;
39788;SDS011;25478;42.626;23.320;2023-08-20T09:13:14;6.75;;;4.85;;
39788;SDS011;25478;42.626;23.320;2023-08-20T09:15:40;8.00;;;4.95;;
39788;SDS011;25478;42.626;23.320;2023-08-20T09:18:08;6.57;;;5.00;;
39788;SDS011;25478;42.626;23.320;2023-08-20T09:20:35;6.43;;;5.40;;
39788;SDS011;25478;42.626;23.320;2023-08-20T09:23:01;6.57;;;5.32;;
39788;SDS011;25478;42.626;23.320;2023-08-20T09:25:27;9.10;;;5.55;;
39788;SDS011;25478;42.626;23.320;2023-08-20T09:27:53;7.45;;;5.20;;
39788;SDS011;25478;42.626;23.320;2023-08-20T09:30:19;7.93;;;5.18;;
39788;SDS011;25478;42.626;23.320;2023-08-20T09:32:45;7.53;;;4.70;;
39788;SDS011;25478;42.626;23.320;2023-08-20T09:35:28;6.15;;;4.55;;
39788;SDS011;25478;42.626;23.320;2023-08-20T09:37:58;8.68;;;5.40;;
39788;SDS011;25478;42.626;23.320;2023-08-20T09:40:24;6.40;;;5.03;;
39788;SDS011;25478;42.626;23.320;2023-08-20T09:42:50;9.68;;;4.85;;
39788;SDS011;25478;42.626;23.320;2023-08-20T09:45:18;6.38;;;4.72;;
39788;SDS011;25478;42.626;23.320;2023-08-20T09:47:44;6.47;;;4.72;;
39788;SDS011;25478;42.626;23.320;2023-08-20T09:50:13;6.38;;;4.00;;
39788;SDS011;25478;42.626;23.320;2023-08-20T09:52:47;6.72;;;4.47;;
39788;SDS011;25478;42.626;23.320;2023-08-20T09:55:23;6.00;;;3.90;;
39788;SDS011;25478;42.626;23.320;2023-08-20T09:57:55;6.95;;;4.75;;
39788;SDS011;25478;42.626;23.320;2023-08-20T10:00:22;6.53;;;4.22;;
39788;SDS011;25478;42.626;23.320;2023-08-20T10:02:47;5.95;;;4.10;;
39788;SDS011;25478;42.626;23.320;2023-08-20T10:05:14;6.32;;;4.03;;
39788;SDS011;25478;42.626;23.320;2023-08-20T10:07:40;4.38;;;3.60;;
39788;SDS011;25478;42.626;23.320;2023-08-20T10:10:08;5.50;;;4.05;;
39788;SDS011;25478;42.626;23.320;2023-08-20T10:12:38;4.70;;;3.83;;
39788;SDS011;25478;42.626;23.320;2023-08-20T10:15:04;5.53;;;3.65;;
39788;SDS011;25478;42.626;23.320;2023-08-20T10:17:33;5.35;;;3.65;;
39788;SDS011;25478;42.626;23.320;2023-08-20T10:19:59;6.45;;;4.20;;
39788;SDS011;25478;42.626;23.320;2023-08-20T10:25:05;4.88;;;3.70;;
39788;SDS011;25478;42.626;23.320;2023-08-20T10:27:33;7.00;;;3.88;;
39788;SDS011;25478;42.626;23.320;2023-08-20T10:30:01;6.30;;;4.05;;
39788;SDS011;25478;42.626;23.320;2023-08-20T10:35:18;6.07;;;3.97;;
39788;SDS011;25478;42.626;23.320;2023-08-20T10:40:53;4.60;;;3.78;;
39788;SDS011;25478;42.626;23.320;2023-08-20T10:43:37;5.10;;;3.92;;
39788;SDS011;25478;42.626;23.320;2023-08-20T10:46:07;7.18;;;4.28;;
39788;SDS011;25478;42.626;23.320;2023-08-20T10:48:40;4.65;;;3.95;;
39788;SDS011;25478;42.626;23.320;2023-08-20T10:51:06;5.47;;;3.90;;
39788;SDS011;25478;42.626;23.320;2023-08-20T10:53:34;6.68;;;4.18;;
39788;SDS011;25478;42.626;23.320;2023-08-20T10:58:34;7.10;;;4.68;;
39788;SDS011;25478;42.626;23.320;2023-08-20T11:01:15;7.22;;;4.60;;
39788;SDS011;25478;42.626;23.320;2023-08-20T11:03:47;5.53;;;4.80;;
39788;SDS011;25478;42.626;23.320;2023-08-20T11:06:16;8.10;;;4.63;;
39788;SDS011;25478;42.626;23.320;2023-08-20T11:08:43;7.40;;;4.65;;
39788;SDS011;25478;42.626;23.320;2023-08-20T11:11:09;5.75;;;4.47;;
39788;SDS011;25478;42.626;23.320;2023-08-20T11:13:35;6.07;;;4.68;;
39788;SDS011;25478;42.626;23.320;2023-08-20T11:16:04;6.07;;;4.20;;
39788;SDS011;25478;42.626;23.320;2023-08-20T11:18:33;6.88;;;4.72;;
39788;SDS011;25478;42.626;23.320;2023-08-20T11:20:59;6.45;;;4.72;;
39788;SDS011;25478;42.626;23.320;2023-08-20T11:23:25;6.43;;;4.72;;
39788;SDS011;25478;42.626;23.320;2023-08-20T11:25:51;7.25;;;4.45;;
39788;SDS011;25478;42.626;23.320;2023-08-20T11:28:16;8.68;;;4.75;;
39788;SDS011;25478;42.626;23.320;2023-08-20T11:30:42;6.05;;;4.35;;
39788;SDS011;25478;42.626;23.320;2023-08-20T11:33:08;5.40;;;4.50;;
39788;SDS011;25478;42.626;23.320;2023-08-20T11:35:34;6.63;;;4.43;;
39788;SDS011;25478;42.626;23.320;2023-08-20T11:38:00;7.63;;;4.30;;
39788;SDS011;25478;42.626;23.320;2023-08-20T11:40:26;6.15;;;4.60;;
39788;SDS011;25478;42.626;23.320;2023-08-20T11:42:51;5.32;;;4.07;;
39788;SDS011;25478;42.626;23.320;2023-08-20T11:45:17;5.47;;;4.65;;
39788;SDS011;25478;42.626;23.320;2023-08-20T11:47:43;7.13;;;4.72;;
39788;SDS011;25478;42.626;23.320;2023-08-20T11:50:09;5.32;;;4.47;;
39788;SDS011;25478;42.626;23.320;2023-08-20T11:52:35;6.10;;;4.60;;
39788;SDS011;25478;42.626;23.320;2023-08-20T11:55:02;6.10;;;4.55;;
39788;SDS011;25478;42.626;23.320;2023-08-20T11:57:29;6.07;;;4.72;;
39788;SDS011;25478;42.626;23.320;2023-08-20T11:59:55;7.38;;;4.95;;
39788;SDS011;25478;42.626;23.320;2023-08-20T12:02:25;5.32;;;4.32;;
39788;SDS011;25478;42.626;23.320;2023-08-20T12:04:58;6.35;;;5.13;;
39788;SDS011;25478;42.626;23.320;2023-08-20T12:07:27;5.90;;;4.30;;
39788;SDS011;25478;42.626;23.320;2023-08-20T12:09:55;6.97;;;4.43;;
39788;SDS011;25478;42.626;23.320;2023-08-20T12:12:21;5.38;;;4.40;;
39788;SDS011;25478;42.626;23.320;2023-08-20T12:14:47;5.25;;;4.30;;
39788;SDS011;25478;42.626;23.320;2023-08-20T12:17:16;5.30;;;4.43;;
39788;SDS011;25478;42.626;23.320;2023-08-20T12:19:45;7.07;;;4.70;;
39788;SDS011;25478;42.626;23.320;2023-08-20T12:22:11;6.43;;;4.28;;
39788;SDS011;25478;42.626;23.320;2023-08-20T12:24:37;6.65;;;4.65;;
39788;SDS011;25478;42.626;23.320;2023-08-20T12:27:03;4.85;;;4.10;;
39788;SDS011;25478;42.626;23.320;2023-08-20T12:29:29;6.43;;;4.00;;
39788;SDS011;25478;42.626;23.320;2023-08-20T12:31:55;6.53;;;4.68;;
39788;SDS011;25478;42.626;23.320;2023-08-20T12:34:20;6.13;;;4.90;;
39788;SDS011;25478;42.626;23.320;2023-08-20T12:36:50;4.93;;;4.43;;
39788;SDS011;25478;42.626;23.320;2023-08-20T12:39:15;6.25;;;4.32;;
39788;SDS011;25478;42.626;23.320;2023-08-20T12:41:41;7.07;;;4.40;;
39788;SDS011;25478;42.626;23.320;2023-08-20T12:44:07;6.05;;;4.68;;
39788;SDS011;25478;42.626;23.320;2023-08-20T12:46:32;5.90;;;4.13;;
39788;SDS011;25478;42.626;23.320;2023-08-20T12:48:58;6.63;;;4.35;;
39788;SDS011;25478;42.626;23.320;2023-08-20T12:51:23;6.38;;;4.60;;
39788;SDS011;25478;42.626;23.320;2023-08-20T12:53:49;7.82;;;4.75;;
39788;SDS011;25478;42.626;23.320;2023-08-20T12:56:14;7.80;;;4.28;;
39788;SDS011;25478;42.626;23.320;2023-08-20T12:58:41;6.15;;;4.60;;
39788;SDS011;25478;42.626;23.320;2023-08-20T13:01:06;5.57;;;4.88;;
39788;SDS011;25478;42.626;23.320;2023-08-20T13:03:32;5.50;;;4.57;;
39788;SDS011;25478;42.626;23.320;2023-08-20T13:05:58;7.28;;;4.88;;
39788;SDS011;25478;42.626;23.320;2023-08-20T13:08:24;8.75;;;5.20;;
39788;SDS011;25478;42.626;23.320;2023-08-20T13:10:53;8.18;;;4.70;;
39788;SDS011;25478;42.626;23.320;2023-08-20T13:13:20;6.43;;;4.78;;
39788;SDS011;25478;42.626;23.320;2023-08-20T13:15:50;8.90;;;4.50;;
39788;SDS011;25478;42.626;23.320;2023-08-20T13:18:17;6.20;;;4.50;;
39788;SDS011;25478;42.626;23.320;2023-08-20T13:20:43;7.00;;;4.38;;
39788;SDS011;25478;42.626;23.320;2023-08-20T13:23:09;6.80;;;4.70;;
39788;SDS011;25478;42.626;23.320;2023-08-20T13:25:35;6.30;;;4.63;;
39788;SDS011;25478;42.626;23.320;2023-08-20T13:28:00;5.43;;;4.35;;
39788;SDS011;25478;42.626;23.320;2023-08-20T13:30:26;6.10;;;4.35;;
39788;SDS011;25478;42.626;23.320;2023-08-20T13:32:51;6.70;;;4.63;;
39788;SDS011;25478;42.626;23.320;2023-08-20T13:35:17;7.60;;;4.30;;
39788;SDS011;25478;42.626;23.320;2023-08-20T13:37:43;5.32;;;4.20;;
39788;SDS011;25478;42.626;23.320;2023-08-20T13:40:09;7.15;;;4.78;;
39788;SDS011;25478;42.626;23.320;2023-08-20T13:42:35;6.82;;;4.97;;
39788;SDS011;25478;42.626;23.320;2023-08-20T13:45:01;5.55;;;4.65;;
39788;SDS011;25478;42.626;23.320;2023-08-20T13:47:27;6.22;;;4.10;;
39788;SDS011;25478;42.626;23.320;2023-08-20T13:49:53;5.95;;;4.68;;
39788;SDS011;25478;42.626;23.320;2023-08-20T13:52:18;6.25;;;4.15;;
39788;SDS011;25478;42.626;23.320;2023-08-20T13:54:44;6.32;;;4.40;;
39788;SDS011;25478;42.626;23.320;2023-08-20T13:57:09;6.15;;;4.78;;
39788;SDS011;25478;42.626;23.320;2023-08-20T13:59:35;7.43;;;4.28;;
39788;SDS011;25478;42.626;23.320;2023-08-20T14:02:00;7.95;;;4.63;;
39788;SDS011;25478;42.626;23.320;2023-08-20T14:04:26;7.53;;;4.90;;
39788;SDS011;25478;42.626;23.320;2023-08-20T14:06:52;6.75;;;4.72;;
39788;SDS011;25478;42.626;23.320;2023-08-20T14:09:17;5.20;;;4.13;;
39788;SDS011;25478;42.626;23.320;2023-08-20T14:11:44;6.25;;;4.28;;
39788;SDS011;25478;42.626;23.320;2023-08-20T14:14:12;5.40;;;4.15;;
39788;SDS011;25478;42.626;23.320;2023-08-20T14:16:37;5.95;;;4.50;;
39788;SDS011;25478;42.626;23.320;2023-08-20T14:19:03;6.90;;;4.20;;
39788;SDS011;25478;42.626;23.320;2023-08-20T14:21:29;5.88;;;4.60;;
39788;SDS011;25478;42.626;23.320;2023-08-20T14:23:54;6.00;;;4.30;;
39788;SDS011;25478;42.626;23.320;2023-08-20T14:26:20;9.10;;;4.45;;
39788;SDS011;25478;42.626;23.320;2023-08-20T14:28:45;7.88;;;4.47;;
39788;SDS011;25478;42.626;23.320;2023-08-20T14:31:11;5.32;;;4.35;;
39788;SDS011;25478;42.626;23.320;2023-08-20T14:33:36;9.05;;;4.60;;
39788;SDS011;25478;42.626;23.320;2023-08-20T14:36:02;6.45;;;4.57;;
39788;SDS011;25478;42.626;23.320;2023-08-20T14:38:28;7.45;;;4.80;;
39788;SDS011;25478;42.626;23.320;2023-08-20T14:40:58;6.90;;;4.00;;
39788;SDS011;25478;42.626;23.320;2023-08-20T14:43:25;6.75;;;4.20;;
39788;SDS011;25478;42.626;23.320;2023-08-20T14:45:50;5.88;;;4.15;;
39788;SDS011;25478;42.626;23.320;2023-08-20T14:48:16;5.03;;;4.13;;
39788;SDS011;25478;42.626;23.320;2023-08-20T14:50:41;5.85;;;4.43;;